createdAt,value
2022-09-28T00:00:48.176Z,92.86
2022-09-28T00:01:48.274Z,92.97
2022-09-28T00:02:48.258Z,92.97
2022-09-28T00:03:48.166Z,93.17
2022-09-28T00:04:48.119Z,93.17
2022-09-28T00:05:48.114Z,93.17
2022-09-28T00:06:48.096Z,93.27
2022-09-28T00:07:48.088Z,93.38
2022-09-28T00:08:48.116Z,93.42
2022-09-28T00:09:48.046Z,93.63
2022-09-28T00:10:48.057Z,93.63
2022-09-28T00:11:48.037Z,93.52
2022-09-28T00:12:48.017Z,93.52
2022-09-28T00:13:48.047Z,93.68
2022-09-28T00:14:47.988Z,93.93
2022-09-28T00:15:47.971Z,93.93
2022-09-28T00:16:48.026Z,94.04
2022-09-28T00:17:47.957Z,94.14
2022-09-28T00:18:47.954Z,94.04
2022-09-28T00:19:47.917Z,94.04
2022-09-28T00:20:47.944Z,94.04
2022-09-28T00:21:48.025Z,93.89
2022-09-28T00:22:47.878Z,93.89
2022-09-28T00:23:47.921Z,93.89
2022-09-28T00:24:47.896Z,93.79
2022-09-28T00:25:48.885Z,93.89
2022-09-28T00:26:47.827Z,93.89
2022-09-28T00:27:47.807Z,93.93
2022-09-28T00:28:47.816Z,93.83
2022-09-28T00:29:47.786Z,93.83
2022-09-28T00:30:47.775Z,93.73
2022-09-28T00:31:47.823Z,93.73
2022-09-28T00:32:47.748Z,93.73
2022-09-28T00:33:47.749Z,93.93
2022-09-28T00:34:47.717Z,94.24
2022-09-28T00:35:47.708Z,94.45
2022-09-28T00:36:47.694Z,94.65
2022-09-28T00:37:47.687Z,94.76
2022-09-28T00:38:47.697Z,94.55
2022-09-28T00:39:47.659Z,94.55
2022-09-28T00:40:47.688Z,94.55
2022-09-28T00:41:47.634Z,94.45
2022-09-28T00:42:47.617Z,94.34
2022-09-28T00:43:47.617Z,94.20
2022-09-28T00:44:47.586Z,94.20
2022-09-28T00:45:47.604Z,94.10
2022-09-28T00:46:47.566Z,94.20
2022-09-28T00:47:47.559Z,94.20
2022-09-28T00:48:47.547Z,94.20
2022-09-28T00:49:47.547Z,94.20
2022-09-28T00:50:47.506Z,94.30
2022-09-28T00:51:47.510Z,94.30
2022-09-28T00:52:47.482Z,94.20
2022-09-28T00:53:47.498Z,93.99
2022-09-28T00:54:47.455Z,93.89
2022-09-28T00:55:47.447Z,93.89
2022-09-28T00:56:47.431Z,93.79
2022-09-28T00:57:47.428Z,93.89
2022-09-28T00:58:47.417Z,93.99
2022-09-28T00:59:47.402Z,94.10
2022-09-28T01:00:47.425Z,94.10
2022-09-28T01:01:47.387Z,94.20
2022-09-28T01:02:47.347Z,94.30
2022-09-28T01:03:47.380Z,94.30
2022-09-28T01:04:47.320Z,94.30
2022-09-28T01:05:47.315Z,94.30
2022-09-28T01:06:47.308Z,94.20
2022-09-28T01:07:47.297Z,94.05
2022-09-28T01:08:47.284Z,94.15
2022-09-28T01:09:47.278Z,94.20
2022-09-28T01:10:47.237Z,94.30
2022-09-28T01:11:47.239Z,94.30
2022-09-28T01:12:47.219Z,94.30
2022-09-28T01:13:47.215Z,94.51
2022-09-28T01:14:47.212Z,94.71
2022-09-28T01:15:47.177Z,94.81
2022-09-28T01:16:47.195Z,94.96
2022-09-28T01:17:47.157Z,94.96
2022-09-28T01:18:47.155Z,94.96
2022-09-28T01:19:47.160Z,94.96
2022-09-28T01:20:47.107Z,95.06
2022-09-28T01:21:47.102Z,95.17
2022-09-28T01:22:47.089Z,95.27
2022-09-28T01:23:47.096Z,95.47
2022-09-28T01:24:47.100Z,95.57
2022-09-28T01:25:47.089Z,95.47
2022-09-28T01:26:47.087Z,95.37
2022-09-28T01:27:47.081Z,95.37
2022-09-28T01:28:47.078Z,95.37
2022-09-28T01:29:47.574Z,95.47
2022-09-28T01:30:47.017Z,95.57
2022-09-28T01:31:47.054Z,95.68
2022-09-28T01:32:46.956Z,95.68
2022-09-28T01:33:46.935Z,95.78
2022-09-28T01:34:46.967Z,95.68
2022-09-28T01:35:46.907Z,95.68
2022-09-28T01:36:46.895Z,95.68
2022-09-28T01:37:46.887Z,95.78
2022-09-28T01:38:46.868Z,95.78
2022-09-28T01:39:46.877Z,95.68
2022-09-28T01:40:46.863Z,95.68
2022-09-28T01:41:46.874Z,95.78
2022-09-28T01:42:46.829Z,95.78
2022-09-28T01:43:46.798Z,95.68
2022-09-28T01:44:46.807Z,95.68
2022-09-28T01:45:46.821Z,95.57
2022-09-28T01:46:46.759Z,95.57
2022-09-28T01:47:46.749Z,95.57
2022-09-28T01:48:46.737Z,95.68
2022-09-28T01:49:46.776Z,95.68
2022-09-28T01:50:46.774Z,95.68
2022-09-28T01:51:46.707Z,95.68
2022-09-28T01:52:46.674Z,95.68
2022-09-28T01:53:46.671Z,95.78
2022-09-28T01:54:46.739Z,95.89
2022-09-28T01:55:46.640Z,96.09
2022-09-28T01:56:46.628Z,95.98
2022-09-28T01:57:46.616Z,95.98
2022-09-28T01:58:46.596Z,95.98
2022-09-28T01:59:46.608Z,95.89
2022-09-28T02:00:46.657Z,95.89
2022-09-28T02:01:46.596Z,95.89
2022-09-28T02:02:46.545Z,95.89
2022-09-28T02:03:46.538Z,95.89
2022-09-28T02:04:46.536Z,95.89
2022-09-28T02:05:46.524Z,95.89
2022-09-28T02:06:46.486Z,95.98
2022-09-28T02:07:46.477Z,96.09
2022-09-28T02:08:46.466Z,96.19
2022-09-28T02:09:46.467Z,96.19
2022-09-28T02:10:46.438Z,96.09
2022-09-28T02:11:46.427Z,95.98
2022-09-28T02:12:46.416Z,95.98
2022-09-28T02:13:46.406Z,95.98
2022-09-28T02:14:46.407Z,95.89
2022-09-28T02:15:46.368Z,95.89
2022-09-28T02:16:46.422Z,95.68
2022-09-28T02:17:46.355Z,95.68
2022-09-28T02:18:46.325Z,95.78
2022-09-28T02:19:46.338Z,95.78
2022-09-28T02:20:46.307Z,95.78
2022-09-28T02:21:46.298Z,95.68
2022-09-28T02:22:46.279Z,95.68
2022-09-28T02:23:46.268Z,95.78
2022-09-28T02:24:46.266Z,95.89
2022-09-28T02:25:46.237Z,95.98
2022-09-28T02:26:46.226Z,95.89
2022-09-28T02:27:46.226Z,95.89
2022-09-28T02:28:46.200Z,95.93
2022-09-28T02:29:46.207Z,96.09
2022-09-28T02:30:46.177Z,96.14
2022-09-28T02:31:46.216Z,96.03
2022-09-28T02:32:46.155Z,96.03
2022-09-28T02:33:46.203Z,96.14
2022-09-28T02:34:46.142Z,96.23
2022-09-28T02:35:46.108Z,96.23
2022-09-28T02:36:46.097Z,96.23
2022-09-28T02:37:46.085Z,96.23
2022-09-28T02:38:46.090Z,96.23
2022-09-28T02:39:46.077Z,96.34
2022-09-28T02:40:46.124Z,96.34
2022-09-28T02:41:46.033Z,96.34
2022-09-28T02:42:46.069Z,96.44
2022-09-28T02:43:46.015Z,96.50
2022-09-28T02:44:46.022Z,96.50
2022-09-28T02:45:46.030Z,96.40
2022-09-28T02:46:45.956Z,96.40
2022-09-28T02:47:45.958Z,96.40
2022-09-28T02:48:55.781Z,96.30
2022-09-28T02:49:46.937Z,96.30
2022-09-28T02:50:45.929Z,96.30
2022-09-28T02:51:45.914Z,96.30
2022-09-28T02:52:45.890Z,96.30
2022-09-28T02:53:45.887Z,96.40
2022-09-28T02:54:45.891Z,96.40
2022-09-28T02:55:45.848Z,96.40
2022-09-28T02:56:45.819Z,96.50
2022-09-28T02:57:45.826Z,96.50
2022-09-28T02:58:45.795Z,96.40
2022-09-28T02:59:45.808Z,96.19
2022-09-28T03:00:45.792Z,96.19
2022-09-28T03:01:45.792Z,96.09
2022-09-28T03:02:45.747Z,96.09
2022-09-28T03:03:45.740Z,96.09
2022-09-28T03:04:45.738Z,95.98
2022-09-28T03:05:45.708Z,95.98
2022-09-28T03:06:45.688Z,96.09
2022-09-28T03:07:45.687Z,96.30
2022-09-28T03:08:45.666Z,96.40
2022-09-28T03:09:45.679Z,96.60
2022-09-28T03:10:45.636Z,96.70
2022-09-28T03:11:45.641Z,96.70
2022-09-28T03:12:45.616Z,96.60
2022-09-28T03:13:45.618Z,96.60
2022-09-28T03:14:45.610Z,96.50
2022-09-28T03:15:48.874Z,96.50
2022-09-28T03:16:46.372Z,96.50
2022-09-28T03:17:45.550Z,96.50
2022-09-28T03:18:45.538Z,96.50
2022-09-28T03:19:45.553Z,96.60
2022-09-28T03:20:45.506Z,96.60
2022-09-28T03:21:45.499Z,96.60
2022-09-28T03:23:00.229Z,96.60
2022-09-28T03:23:46.469Z,96.50
2022-09-28T03:24:45.479Z,96.40
2022-09-28T03:25:45.448Z,96.40
2022-09-28T03:26:45.431Z,96.19
2022-09-28T03:27:45.480Z,96.09
2022-09-28T03:28:45.399Z,96.09
2022-09-28T03:29:45.408Z,96.09
2022-09-28T03:30:45.382Z,96.30
2022-09-28T03:31:45.405Z,96.30
2022-09-28T03:32:45.348Z,96.40
2022-09-28T03:33:45.348Z,96.30
2022-09-28T03:34:45.350Z,96.40
2022-09-28T03:35:45.319Z,96.40
2022-09-28T03:36:45.299Z,96.30
2022-09-28T03:37:45.289Z,96.19
2022-09-28T03:38:45.271Z,96.09
2022-09-28T03:39:45.279Z,96.09
2022-09-28T03:40:45.455Z,96.09
2022-09-28T03:41:45.238Z,95.98
2022-09-28T03:42:45.219Z,95.98
2022-09-28T03:43:45.209Z,95.98
2022-09-28T03:44:45.208Z,96.09
2022-09-28T03:45:45.233Z,95.98
2022-09-28T03:46:45.167Z,95.98
2022-09-28T03:47:45.230Z,96.09
2022-09-28T03:48:45.139Z,96.09
2022-09-28T03:49:45.139Z,96.09
2022-09-28T03:50:45.110Z,96.19
2022-09-28T03:51:45.099Z,96.19
2022-09-28T03:52:45.093Z,96.19
2022-09-28T03:53:45.079Z,96.30
2022-09-28T03:54:49.033Z,96.30
2022-09-28T03:55:45.049Z,96.19
2022-09-28T03:56:45.038Z,96.14
2022-09-28T03:57:45.020Z,96.03
2022-09-28T03:58:44.999Z,96.03
2022-09-28T03:59:45.008Z,96.03
2022-09-28T04:00:44.998Z,96.03
2022-09-28T04:01:45.007Z,96.03
2022-09-28T04:02:44.947Z,96.14
2022-09-28T04:03:44.936Z,96.09
2022-09-28T04:04:44.939Z,96.09
2022-09-28T04:05:44.929Z,95.98
2022-09-28T04:06:44.890Z,95.98
2022-09-28T04:07:44.889Z,95.89
2022-09-28T04:08:44.889Z,95.78
2022-09-28T04:09:44.857Z,95.78
2022-09-28T04:10:44.848Z,95.89
2022-09-28T04:12:02.795Z,95.89
2022-09-28T04:12:45.820Z,95.89
2022-09-28T04:13:44.809Z,95.68
2022-09-28T04:14:44.800Z,95.68
2022-09-28T04:15:44.787Z,95.68
2022-09-28T04:16:44.804Z,95.57
2022-09-28T04:17:44.759Z,95.47
2022-09-28T04:18:44.735Z,95.37
2022-09-28T04:19:44.750Z,95.47
2022-09-28T04:20:44.719Z,95.37
2022-09-28T04:21:44.721Z,95.27
2022-09-28T04:22:44.661Z,94.85
2022-09-28T04:23:44.701Z,94.80
2022-09-28T04:24:44.711Z,94.49
2022-09-28T04:25:44.641Z,94.39
2022-09-28T04:26:44.637Z,94.08
2022-09-28T04:27:44.618Z,93.98
2022-09-28T04:28:44.606Z,94.08
2022-09-28T04:29:44.607Z,94.18
2022-09-28T04:30:44.579Z,94.29
2022-09-28T04:31:44.631Z,94.39
2022-09-28T04:32:44.561Z,94.39
2022-09-28T04:33:44.569Z,94.18
2022-09-28T04:34:44.673Z,94.08
2022-09-28T04:35:44.530Z,93.77
2022-09-28T04:36:44.534Z,93.67
2022-09-28T04:37:44.600Z,93.40
2022-09-28T04:38:53.498Z,93.10
2022-09-28T04:39:48.436Z,93.20
2022-09-28T04:40:44.498Z,93.10
2022-09-28T04:41:44.449Z,93.10
2022-09-28T04:42:44.421Z,93.40
2022-09-28T04:43:44.408Z,93.61
2022-09-28T04:44:44.407Z,93.30
2022-09-28T04:45:44.450Z,93.30
2022-09-28T04:46:44.380Z,93.40
2022-09-28T04:47:44.350Z,93.51
2022-09-28T04:48:44.341Z,93.51
2022-09-28T04:49:44.339Z,93.51
2022-09-28T04:50:51.609Z,93.44
2022-09-28T04:51:44.299Z,93.44
2022-09-28T04:52:44.286Z,93.24
2022-09-28T04:53:44.283Z,93.24
2022-09-28T04:54:44.333Z,93.55
2022-09-28T04:55:44.246Z,93.76
2022-09-28T04:56:44.239Z,94.07
2022-09-28T04:57:44.220Z,94.27
2022-09-28T04:58:46.865Z,94.37
2022-09-28T04:59:44.198Z,94.37
2022-09-28T05:00:44.250Z,94.37
2022-09-28T05:01:44.168Z,94.17
2022-09-28T05:02:44.198Z,94.21
2022-09-28T05:03:44.140Z,94.31
2022-09-28T05:04:44.141Z,94.31
2022-09-28T05:05:44.128Z,94.21
2022-09-28T05:06:44.099Z,94.21
2022-09-28T05:07:44.110Z,94.11
2022-09-28T05:08:44.081Z,93.90
2022-09-28T05:09:44.059Z,93.70
2022-09-28T05:10:44.069Z,93.39
2022-09-28T05:11:44.040Z,93.39
2022-09-28T05:12:44.019Z,93.59
2022-09-28T05:13:44.010Z,93.70
2022-09-28T05:14:43.989Z,93.80
2022-09-28T05:15:44.037Z,93.80
2022-09-28T05:16:44.005Z,93.90
2022-09-28T05:17:43.948Z,94.01
2022-09-28T05:18:43.972Z,94.11
2022-09-28T05:19:43.919Z,94.31
2022-09-28T05:20:43.933Z,94.42
2022-09-28T05:21:43.896Z,94.42
2022-09-28T05:22:43.878Z,94.62
2022-09-28T05:23:43.880Z,94.83
2022-09-28T05:24:43.859Z,95.03
2022-09-28T05:25:43.860Z,95.24
2022-09-28T05:26:43.848Z,95.45
2022-09-28T05:27:43.817Z,95.45
2022-09-28T05:28:43.820Z,95.45
2022-09-28T05:29:43.831Z,95.34
2022-09-28T05:30:43.809Z,95.40
2022-09-28T05:31:43.872Z,95.03
2022-09-28T05:32:43.757Z,94.99
2022-09-28T05:33:43.729Z,94.78
2022-09-28T05:34:43.726Z,96.33
2022-09-28T05:35:43.790Z,99.99
2022-09-28T05:36:43.709Z,99.99
2022-09-28T05:37:43.687Z,99.99
2022-09-28T05:38:43.661Z,99.99
2022-09-28T05:39:43.667Z,99.60
2022-09-28T05:40:43.749Z,98.83
2022-09-28T05:41:43.630Z,95.97
2022-09-28T05:42:43.619Z,95.97
2022-09-28T05:43:43.612Z,95.82
2022-09-28T05:44:43.602Z,92.03
2022-09-28T05:45:43.630Z,92.71
2022-09-28T05:46:43.568Z,91.78
2022-09-28T05:47:43.559Z,90.41
2022-09-28T05:48:43.599Z,89.29
2022-09-28T05:49:43.567Z,84.83
2022-09-28T05:50:43.519Z,84.15
2022-09-28T05:51:43.523Z,84.60
2022-09-28T05:52:43.488Z,84.74
2022-09-28T05:53:43.470Z,85.39
2022-09-28T05:54:43.446Z,86.66
2022-09-28T05:55:43.836Z,87.84
2022-09-28T05:56:43.450Z,88.76
2022-09-28T05:57:43.409Z,89.11
2022-09-28T05:58:43.419Z,89.62
2022-09-28T05:59:43.388Z,89.93
2022-09-28T06:00:43.390Z,90.38
2022-09-28T06:01:43.413Z,90.89
2022-09-28T06:02:43.437Z,91.41
2022-09-28T06:03:43.333Z,91.61
2022-09-28T06:04:43.354Z,91.93
2022-09-28T06:05:43.338Z,92.27
2022-09-28T06:06:43.294Z,92.69
2022-09-28T06:07:43.282Z,92.79
2022-09-28T06:08:43.281Z,92.89
2022-09-28T06:09:43.261Z,92.79
2022-09-28T06:10:43.270Z,92.69
2022-09-28T06:11:43.230Z,92.79
2022-09-28T06:12:43.219Z,92.79
2022-09-28T06:13:43.200Z,92.48
2022-09-28T06:14:43.203Z,92.58
2022-09-28T06:15:43.197Z,92.89
2022-09-28T06:16:44.067Z,93.30
2022-09-28T06:17:43.140Z,93.51
2022-09-28T06:18:43.138Z,93.51
2022-09-28T06:19:43.118Z,93.61
2022-09-28T06:20:43.136Z,93.61
2022-09-28T06:21:43.098Z,93.77
2022-09-28T06:22:43.092Z,93.87
2022-09-28T06:23:48.153Z,93.98
2022-09-28T06:24:44.059Z,93.36
2022-09-28T06:25:43.078Z,92.95
2022-09-28T06:26:43.043Z,92.74
2022-09-28T06:27:43.018Z,92.74
2022-09-28T06:28:43.008Z,92.85
2022-09-28T06:29:42.992Z,92.33
2022-09-28T06:30:43.041Z,92.03
2022-09-28T06:31:42.968Z,92.03
2022-09-28T06:32:42.951Z,91.93
2022-09-28T06:33:42.951Z,92.03
2022-09-28T06:34:42.931Z,92.54
2022-09-28T06:35:42.940Z,92.70
2022-09-28T06:36:42.922Z,92.70
2022-09-28T06:37:42.878Z,92.60
2022-09-28T06:38:42.880Z,92.23
2022-09-28T06:39:42.864Z,92.33
2022-09-28T06:40:42.892Z,92.64
2022-09-28T06:41:42.851Z,92.74
2022-09-28T06:42:42.821Z,92.85
2022-09-28T06:43:42.810Z,92.95
2022-09-28T06:44:42.804Z,93.21
2022-09-28T06:45:42.854Z,93.32
2022-09-28T06:46:42.791Z,93.32
2022-09-28T06:47:42.774Z,93.21
2022-09-28T06:48:42.784Z,92.91
2022-09-28T06:49:42.729Z,92.80
2022-09-28T06:50:42.721Z,92.66
2022-09-28T06:51:42.711Z,92.25
2022-09-28T06:52:42.691Z,92.04
2022-09-28T06:53:42.673Z,91.42
2022-09-28T06:54:42.775Z,90.50
2022-09-28T06:55:42.651Z,90.20
2022-09-28T06:56:42.700Z,89.99
2022-09-28T06:57:42.643Z,90.20
2022-09-28T06:58:42.601Z,90.91
2022-09-28T06:59:42.590Z,89.99
2022-09-28T07:00:42.590Z,90.61
2022-09-28T07:01:42.684Z,91.02
2022-09-28T07:02:42.724Z,91.53
2022-09-28T07:03:42.551Z,91.63
2022-09-28T07:04:42.541Z,92.04
2022-09-28T07:05:42.519Z,91.42
2022-09-28T07:06:42.522Z,91.42
2022-09-28T07:07:42.493Z,91.33
2022-09-28T07:08:42.492Z,91.22
2022-09-28T07:09:46.491Z,92.61
2022-09-28T07:10:43.461Z,91.90
2022-09-28T07:11:42.459Z,89.23
2022-09-28T07:12:42.429Z,89.48
2022-09-28T07:13:50.456Z,90.20
2022-09-28T07:14:47.673Z,90.61
2022-09-28T07:15:42.384Z,91.18
2022-09-28T07:17:09.744Z,91.42
2022-09-28T07:17:56.937Z,90.61
2022-09-28T07:18:43.343Z,90.91
2022-09-28T07:19:42.330Z,91.33
2022-09-28T07:20:52.081Z,91.02
2022-09-28T07:21:43.898Z,91.12
2022-09-28T07:22:43.857Z,91.33
2022-09-28T07:23:52.394Z,91.53
2022-09-28T07:24:43.277Z,91.12
2022-09-28T07:25:42.259Z,91.33
2022-09-28T07:26:42.271Z,91.42
2022-09-28T07:27:42.252Z,91.49
2022-09-28T07:28:42.198Z,91.90
2022-09-28T07:29:42.198Z,92.00
2022-09-28T07:30:42.274Z,91.90
2022-09-28T07:31:42.183Z,92.00
2022-09-28T07:32:42.162Z,92.10
2022-09-28T07:33:42.153Z,91.38
2022-09-28T07:34:42.131Z,90.56
2022-09-28T07:35:42.114Z,88.86
2022-09-28T07:36:42.145Z,88.66
2022-09-28T07:37:42.092Z,89.07
2022-09-28T07:38:42.084Z,89.48
2022-09-28T07:39:42.068Z,89.27
2022-09-28T07:40:45.129Z,89.48
2022-09-28T07:41:43.174Z,89.58
2022-09-28T07:42:42.012Z,89.89
2022-09-28T07:43:42.002Z,90.05
2022-09-28T07:44:42.021Z,89.95
2022-09-28T07:45:42.037Z,90.77
2022-09-28T07:46:42.013Z,91.18
2022-09-28T07:47:41.962Z,90.16
2022-09-28T07:48:41.953Z,90.77
2022-09-28T07:49:41.931Z,90.46
2022-09-28T07:50:41.940Z,90.16
2022-09-28T07:51:41.920Z,89.54
2022-09-28T07:52:41.891Z,88.82
2022-09-28T07:53:41.878Z,87.59
2022-09-28T07:54:41.872Z,88.31
2022-09-28T07:55:41.842Z,88.82
2022-09-28T07:56:41.864Z,88.98
2022-09-28T07:57:41.830Z,89.09
2022-09-28T07:58:41.826Z,88.78
2022-09-28T07:59:41.797Z,88.68
2022-09-28T08:00:41.802Z,87.85
2022-09-28T08:01:41.857Z,87.96
2022-09-28T08:02:41.813Z,87.76
2022-09-28T08:03:41.742Z,88.17
2022-09-28T08:04:41.732Z,88.43
2022-09-28T08:05:41.716Z,89.04
2022-09-28T08:06:41.721Z,88.43
2022-09-28T08:07:41.679Z,88.02
2022-09-28T08:08:41.680Z,87.61
2022-09-28T08:09:41.653Z,86.99
2022-09-28T08:10:45.804Z,87.41
2022-09-28T08:11:42.643Z,86.79
2022-09-28T08:12:41.622Z,86.48
2022-09-28T08:13:41.612Z,87.30
2022-09-28T08:14:41.600Z,85.97
2022-09-28T08:15:41.576Z,86.28
2022-09-28T08:16:41.563Z,86.69
2022-09-28T08:17:41.621Z,86.79
2022-09-28T08:18:41.541Z,86.18
2022-09-28T08:19:41.523Z,86.38
2022-09-28T08:20:41.522Z,86.90
2022-09-28T08:21:41.502Z,86.28
2022-09-28T08:22:41.501Z,86.69
2022-09-28T08:23:41.453Z,86.48
2022-09-28T08:24:41.456Z,85.66
2022-09-28T08:25:41.547Z,85.25
2022-09-28T08:26:41.432Z,85.56
2022-09-28T08:27:41.742Z,86.44
2022-09-28T08:28:41.422Z,87.16
2022-09-28T08:29:41.384Z,86.65
2022-09-28T08:30:41.409Z,85.83
2022-09-28T08:31:41.353Z,85.72
2022-09-28T08:32:41.373Z,88.18
2022-09-28T08:33:41.372Z,87.37
2022-09-28T08:34:41.360Z,86.28
2022-09-28T08:35:41.413Z,84.74
2022-09-28T08:36:41.311Z,85.97
2022-09-28T08:37:42.436Z,87.71
2022-09-28T08:38:41.264Z,87.82
2022-09-28T08:39:41.243Z,87.37
2022-09-28T08:40:41.261Z,86.69
2022-09-28T08:41:41.247Z,86.14
2022-09-28T08:42:41.212Z,85.22
2022-09-28T08:43:41.196Z,84.09
2022-09-28T08:44:41.190Z,86.04
2022-09-28T08:45:41.431Z,84.60
2022-09-28T08:46:41.179Z,84.70
2022-09-28T08:47:41.123Z,85.31
2022-09-28T08:48:41.130Z,85.11
2022-09-28T08:49:41.117Z,85.11
2022-09-28T08:50:41.106Z,86.04
2022-09-28T08:51:41.112Z,86.34
2022-09-28T08:52:41.343Z,85.22
2022-09-28T08:53:41.073Z,85.63
2022-09-28T08:54:41.062Z,85.31
2022-09-28T08:55:41.043Z,85.31
2022-09-28T08:56:41.041Z,85.83
2022-09-28T08:57:41.003Z,86.20
2022-09-28T08:58:41.027Z,86.40
2022-09-28T08:59:40.980Z,85.58
2022-09-28T09:00:40.966Z,83.64
2022-09-28T09:01:41.015Z,84.25
2022-09-28T09:02:40.982Z,85.17
2022-09-28T09:03:40.922Z,84.87
2022-09-28T09:04:40.912Z,84.25
2022-09-28T09:05:40.895Z,84.72
2022-09-28T09:06:40.894Z,85.03
2022-09-28T09:07:40.873Z,84.83
2022-09-28T09:08:40.847Z,84.31
2022-09-28T09:09:40.843Z,84.31
2022-09-28T09:10:40.823Z,84.52
2022-09-28T09:11:40.824Z,84.31
2022-09-28T09:12:40.834Z,83.91
2022-09-28T09:13:40.795Z,84.17
2022-09-28T09:14:40.764Z,83.25
2022-09-28T09:15:40.795Z,82.84
2022-09-28T09:16:40.824Z,83.25
2022-09-28T09:17:40.745Z,84.17
2022-09-28T09:18:40.774Z,83.36
2022-09-28T09:19:40.714Z,83.15
2022-09-28T09:20:40.681Z,83.36
2022-09-28T09:21:40.672Z,83.76
2022-09-28T09:22:40.695Z,83.56
2022-09-28T09:23:40.713Z,82.03
2022-09-28T09:24:40.645Z,81.31
2022-09-28T09:25:40.624Z,80.80
2022-09-28T09:26:40.603Z,81.31
2022-09-28T09:27:40.605Z,82.64
2022-09-28T09:28:40.574Z,83.66
2022-09-28T09:29:40.564Z,83.36
2022-09-28T09:30:40.631Z,83.66
2022-09-28T09:31:40.542Z,82.95
2022-09-28T09:32:40.534Z,82.64
2022-09-28T09:33:40.513Z,81.31
2022-09-28T09:34:40.506Z,80.39
2022-09-28T09:35:40.493Z,80.90
2022-09-28T09:36:41.277Z,80.69
2022-09-28T09:37:40.465Z,81.01
2022-09-28T09:38:40.433Z,80.90
2022-09-28T09:39:40.433Z,81.51
2022-09-28T09:40:40.461Z,81.17
2022-09-28T09:41:40.394Z,79.78
2022-09-28T09:42:40.409Z,78.45
2022-09-28T09:43:40.382Z,77.22
2022-09-28T09:44:40.353Z,78.75
2022-09-28T09:45:40.376Z,79.94
2022-09-28T09:46:40.328Z,80.01
2022-09-28T09:47:40.326Z,77.76
2022-09-28T09:48:40.305Z,77.45
2022-09-28T09:49:40.285Z,78.13
2022-09-28T09:50:40.246Z,78.13
2022-09-28T09:51:40.273Z,79.77
2022-09-28T09:52:43.679Z,80.18
2022-09-28T09:53:40.246Z,80.69
2022-09-28T09:54:40.225Z,80.79
2022-09-28T09:55:40.218Z,80.04
2022-09-28T09:56:40.265Z,78.13
2022-09-28T09:57:40.206Z,79.02
2022-09-28T09:58:40.166Z,78.13
2022-09-28T09:59:40.167Z,78.23
2022-09-28T10:00:40.159Z,79.46
2022-09-28T10:01:40.206Z,78.34
2022-09-28T10:02:40.168Z,78.03
2022-09-28T10:03:40.108Z,78.75
2022-09-28T10:04:40.086Z,80.07
2022-09-28T10:05:40.083Z,80.48
2022-09-28T10:06:40.062Z,79.97
2022-09-28T10:07:43.219Z,77.76
2022-09-28T10:08:40.037Z,78.07
2022-09-28T10:09:40.152Z,78.27
2022-09-28T10:10:40.047Z,78.78
2022-09-28T10:11:40.026Z,79.70
2022-09-28T10:12:39.976Z,79.09
2022-09-28T10:13:39.986Z,79.84
2022-09-28T10:14:39.940Z,80.56
2022-09-28T10:15:39.936Z,81.07
2022-09-28T10:16:40.050Z,81.68
2022-09-28T10:17:39.935Z,81.62
2022-09-28T10:18:39.920Z,82.13
2022-09-28T10:19:39.896Z,83.15
2022-09-28T10:20:39.870Z,83.50
2022-09-28T10:21:39.876Z,84.01
2022-09-28T10:22:39.837Z,84.83
2022-09-28T10:23:39.857Z,85.55
2022-09-28T10:24:39.822Z,86.36
2022-09-28T10:25:39.821Z,86.46
2022-09-28T10:26:39.786Z,87.08
2022-09-28T10:27:39.794Z,86.57
2022-09-28T10:28:39.793Z,84.97
2022-09-28T10:29:39.756Z,84.97
2022-09-28T10:30:39.822Z,84.46
2022-09-28T10:31:39.718Z,84.46
2022-09-28T10:32:39.719Z,84.60
2022-09-28T10:33:39.744Z,85.63
2022-09-28T10:34:39.677Z,85.52
2022-09-28T10:35:39.746Z,86.14
2022-09-28T10:36:39.645Z,85.22
2022-09-28T10:37:39.637Z,86.14
2022-09-28T10:38:39.638Z,86.51
2022-09-28T10:39:39.616Z,86.40
2022-09-28T10:40:39.681Z,86.40
2022-09-28T10:41:39.587Z,84.15
2022-09-28T10:42:39.569Z,84.36
2022-09-28T10:43:39.578Z,85.48
2022-09-28T10:44:39.546Z,86.61
2022-09-28T10:45:39.618Z,85.69
2022-09-28T10:46:39.507Z,85.79
2022-09-28T10:47:39.499Z,85.99
2022-09-28T10:48:40.060Z,85.58
2022-09-28T10:49:43.127Z,85.75
2022-09-28T10:50:40.456Z,85.64
2022-09-28T10:51:39.447Z,84.72
2022-09-28T10:52:39.428Z,84.31
2022-09-28T10:53:39.438Z,84.72
2022-09-28T10:54:39.409Z,86.63
2022-09-28T10:55:39.386Z,86.63
2022-09-28T10:56:39.409Z,84.69
2022-09-28T10:57:39.379Z,84.28
2022-09-28T10:58:46.617Z,84.28
2022-09-28T10:59:39.337Z,84.48
2022-09-28T11:00:39.335Z,84.58
2022-09-28T11:01:39.352Z,84.44
2022-09-28T11:02:39.335Z,82.34
2022-09-28T11:03:39.297Z,81.99
2022-09-28T11:04:39.265Z,83.42
2022-09-28T11:05:39.252Z,84.24
2022-09-28T11:06:39.227Z,83.62
2022-09-28T11:07:39.229Z,83.73
2022-09-28T11:08:39.226Z,83.83
2022-09-28T11:09:39.198Z,83.69
2022-09-28T11:10:39.178Z,81.54
2022-09-28T11:11:39.167Z,81.54
2022-09-28T11:12:39.156Z,82.05
2022-09-28T11:13:39.171Z,82.53
2022-09-28T11:14:42.445Z,82.63
2022-09-28T11:15:39.119Z,83.00
2022-09-28T11:16:39.164Z,84.18
2022-09-28T11:17:39.088Z,86.90
2022-09-28T11:18:39.074Z,81.04
2022-09-28T11:19:39.068Z,82.90
2022-09-28T11:20:40.714Z,79.03
2022-09-28T11:21:39.036Z,79.30
2022-09-28T11:22:39.017Z,80.69
2022-09-28T11:23:39.026Z,79.88
2022-09-28T11:24:38.994Z,74.96
2022-09-28T11:25:38.977Z,75.91
2022-09-28T11:26:38.968Z,75.77
2022-09-28T11:27:38.957Z,73.23
2022-09-28T11:28:38.957Z,74.24
2022-09-28T11:29:38.941Z,73.94
2022-09-28T11:30:38.955Z,74.15
2022-09-28T11:31:38.898Z,72.52
2022-09-28T11:32:38.887Z,72.31
2022-09-28T11:33:38.899Z,70.38
2022-09-28T11:34:58.098Z,70.89
2022-09-28T11:35:39.849Z,70.62
2022-09-28T11:36:38.860Z,70.95
2022-09-28T11:37:38.826Z,72.72
2022-09-28T11:38:38.819Z,74.62
2022-09-28T11:39:38.799Z,76.29
2022-09-28T11:40:38.834Z,77.96
2022-09-28T11:41:38.768Z,78.85
2022-09-28T11:42:38.768Z,79.80
2022-09-28T11:43:38.770Z,81.54
2022-09-28T11:44:38.729Z,83.32
2022-09-28T11:45:38.781Z,84.65
2022-09-28T11:46:38.700Z,84.41
2022-09-28T11:47:38.697Z,85.22
2022-09-28T11:48:38.708Z,85.12
2022-09-28T11:49:38.658Z,85.73
2022-09-28T11:50:38.637Z,85.79
2022-09-28T11:51:38.644Z,84.47
2022-09-28T11:52:38.619Z,83.85
2022-09-28T11:53:38.630Z,84.63
2022-09-28T11:54:38.598Z,84.33
2022-09-28T11:55:38.609Z,84.69
2022-09-28T11:56:38.831Z,81.02
2022-09-28T11:57:38.596Z,82.00
2022-09-28T11:58:38.735Z,83.02
2022-09-28T11:59:38.691Z,83.12
2022-09-28T12:00:38.605Z,83.53
2022-09-28T12:01:38.585Z,83.49
2022-09-28T12:02:38.663Z,83.45
2022-09-28T12:03:38.688Z,83.86
2022-09-28T12:04:38.605Z,84.12
2022-09-28T12:05:38.472Z,79.34
2022-09-28T12:06:38.711Z,76.39
2022-09-28T12:07:38.542Z,74.32
2022-09-28T12:08:38.452Z,74.62
2022-09-28T12:09:38.454Z,73.57
2022-09-28T12:10:42.168Z,74.28
2022-09-28T12:11:39.457Z,72.25
2022-09-28T12:12:38.383Z,71.94
2022-09-28T12:13:38.378Z,73.16
2022-09-28T12:14:38.331Z,73.50
2022-09-28T12:16:07.478Z,74.41
2022-09-28T12:17:04.381Z,72.92
2022-09-28T12:17:39.458Z,73.33
2022-09-28T12:18:38.292Z,76.08
2022-09-28T12:19:38.341Z,74.15
2022-09-28T12:20:38.251Z,76.08
2022-09-28T12:21:38.350Z,74.96
2022-09-28T12:22:38.433Z,74.38
2022-09-28T12:23:38.529Z,76.08
2022-09-28T12:24:38.275Z,74.69
2022-09-28T12:25:38.212Z,74.08
2022-09-28T12:26:38.291Z,74.18
2022-09-28T12:27:38.173Z,74.32
2022-09-28T12:28:38.273Z,75.54
2022-09-28T12:29:38.178Z,76.97
2022-09-28T12:30:38.185Z,75.23
2022-09-28T12:31:38.136Z,75.64
2022-09-28T12:32:38.135Z,74.52
2022-09-28T12:33:38.142Z,75.54
2022-09-28T12:34:38.258Z,76.76
2022-09-28T12:35:38.141Z,77.48
2022-09-28T12:36:38.031Z,76.87
2022-09-28T12:37:38.087Z,75.13
2022-09-28T12:38:38.022Z,75.13
2022-09-28T12:39:56.588Z,75.54
2022-09-28T12:40:39.035Z,75.07
2022-09-28T12:41:38.063Z,76.09
2022-09-28T12:42:37.962Z,75.07
2022-09-28T12:43:37.992Z,74.66
2022-09-28T12:44:38.030Z,74.66
2022-09-28T12:45:53.186Z,74.55
2022-09-28T12:46:39.015Z,75.37
2022-09-28T12:47:37.901Z,76.29
2022-09-28T12:48:37.951Z,77.11
2022-09-28T12:50:41.605Z,74.55
2022-09-28T12:51:38.830Z,74.05
2022-09-28T12:52:37.881Z,74.05
2022-09-28T12:53:37.863Z,75.68